Главная страница
METAR-TAF:

METAR-TAF

Аэропорты :

Магнитогорск, Россия

широта: 53-23-36N, долгота: 058-45-24E, высота над уровнем моря: 436 м

Текущие метеонаблюдения

Эта сводка был подготовлена 26 минут назад, в 10:00 UTC
Ветер 14 Узел от северо-северо-восточный
Температура -24°C
Влажность 63%
Давление 1037 hPa
Видимость 10 км и более

METAR: USCM 221000Z 02007MPS 9999 NSC M24/M29 Q1037 R36/090060 NOSIG RMK QFE739

Время: 15:26 (10:26 UTC)

Прогноз

Эта сводка был подготовлена 2 часа и 26 минут назад, в 08:00 UTC
Прогноз действительный с 22-го 09 UTC до 22-го 18 UTC
Ветер 12 Узел от северо-северо-восточный
Видимость 10 км и более
Рассеянная облачность на высоте 2000 фута
временами
С 22-го 09 UTC до 22-го 18 UTC
Ветер 21 Узел от северный
Видимость: 3100 м
Сплошная облачность на высоте 1100 фута
небольшой снег, поземка

TAF: USCM 220800Z 2209/2218 03006MPS 9999 BKN020 TEMPO 2209/2218 01011MPS 3100 -SN DRSN OVC011

Метеонаблюдения и прогнозы для более 4000 аэропортов (сводки METAR и TAF).

Имеющиеся станции представлены на карте желтыми и красными точками.

Чтобы увидеть название станции, наведите на нее мышь.

Затем щелкните, чтобы увидеть метеонаблюдения и метеопрогнозы.

Управление картой: чтобы увеличить масштаб, щелкните зеленые кнопки с черным крестиком; чтобы уменьшить масштаб, щелкните зеленую кнопку с тире; для просмотра соседних карт щелкайте зеленые стрелки.


METAR-TAF: